createdAt,value
2022-12-08T00:01:56.736Z,100819.47
2022-12-08T00:04:27.930Z,100829.47
2022-12-08T00:07:17.315Z,100823.25
2022-12-08T00:09:48.571Z,100837.38
2022-12-08T00:12:19.704Z,100842.38
2022-12-08T00:14:51.277Z,100845.91
2022-12-08T00:17:22.749Z,100824.06
2022-12-08T00:19:54.424Z,100850.84
2022-12-08T00:22:25.819Z,100864.34
2022-12-08T00:24:57.567Z,100861.88
2022-12-08T00:27:28.729Z,100861.63
2022-12-08T00:29:59.926Z,100861.88
2022-12-08T00:32:31.187Z,100808.69
2022-12-08T00:35:02.657Z,100866.84
2022-12-08T00:37:34.063Z,100852.50
2022-12-08T00:40:05.733Z,100870.59
2022-12-08T00:42:39.587Z,100871.88
2022-12-08T00:45:11.684Z,100882.25
2022-12-08T00:47:42.906Z,100887.63
2022-12-08T00:50:14.327Z,100893.25
2022-12-08T00:52:45.527Z,100904.50
2022-12-08T00:55:16.716Z,100914.03
2022-12-08T00:57:48.237Z,100908.00
2022-12-08T01:00:19.857Z,100908.81
2022-12-08T01:02:50.874Z,100914.44
2022-12-08T01:05:22.215Z,100912.97
2022-12-08T01:07:53.558Z,100911.53
2022-12-08T01:10:24.961Z,100914.63
2022-12-08T01:12:56.015Z,100924.19
2022-12-08T01:15:27.243Z,100919.63
2022-12-08T01:17:58.329Z,100921.69
2022-12-08T01:20:30.008Z,100921.69
2022-12-08T01:23:01.192Z,100930.44
2022-12-08T01:25:32.631Z,100933.78
2022-12-08T01:28:03.964Z,100918.38
2022-12-08T01:30:35.362Z,100932.53
2022-12-08T01:33:06.946Z,100922.13
2022-12-08T01:35:38.228Z,100934.59
2022-12-08T01:38:09.413Z,100923.78
2022-12-08T01:40:41.143Z,100903.78
2022-12-08T01:43:22.992Z,100928.75
2022-12-08T01:45:54.163Z,100931.25
2022-12-08T01:48:29.018Z,100937.69
2022-12-08T01:51:01.682Z,100926.69
2022-12-08T01:53:35.192Z,100942.06
2022-12-08T01:56:13.614Z,100948.69
2022-12-08T01:58:49.453Z,100940.81
2022-12-08T02:01:21.043Z,100943.91
2022-12-08T02:04:00.457Z,100947.66
2022-12-08T02:06:37.110Z,100934.16
2022-12-08T02:09:09.952Z,100937.88
2022-12-08T02:11:41.195Z,100934.16
2022-12-08T02:14:15.775Z,100853.53
2022-12-08T02:17:07.626Z,100946.59
2022-12-08T02:20:13.377Z,100941.41
2022-12-08T02:23:10.698Z,100937.22
2022-12-08T02:26:03.131Z,100944.47
2022-12-08T02:28:52.729Z,100944.94
2022-12-08T02:31:41.254Z,100960.31
2022-12-08T02:34:18.389Z,100954.28
2022-12-08T02:36:59.153Z,100944.66
2022-12-08T02:39:40.280Z,100912.50
2022-12-08T02:42:25.407Z,100889.66
2022-12-08T02:45:19.480Z,100929.91
2022-12-08T02:47:51.547Z,100943.22
2022-12-08T02:50:23.522Z,100924.28
2022-12-08T02:52:54.937Z,100914.13
2022-12-08T02:55:35.067Z,100789.13
2022-12-08T02:58:43.156Z,100936.97
2022-12-08T03:01:34.113Z,100934.88
2022-12-08T03:04:28.245Z,100882.75
2022-12-08T03:07:24.077Z,100936.09
2022-12-08T03:10:17.678Z,100939.44
2022-12-08T03:12:56.085Z,100925.72
2022-12-08T03:15:27.666Z,100931.50
2022-12-08T03:18:02.261Z,100925.28
2022-12-08T03:20:36.488Z,100846.56
2022-12-08T03:23:13.682Z,100838.44
2022-12-08T03:26:02.746Z,100838.06
2022-12-08T03:28:34.078Z,100921.47
2022-12-08T03:31:09.351Z,100857.91
2022-12-08T03:33:44.697Z,100895.91
2022-12-08T03:36:17.389Z,100826.31
2022-12-08T03:38:51.936Z,100903.94
2022-12-08T03:41:24.701Z,100907.25
2022-12-08T03:44:00.934Z,100893.13
2022-12-08T03:46:33.505Z,100804.69
2022-12-08T03:49:04.643Z,100897.66
2022-12-08T03:51:35.810Z,100880.97
2022-12-08T03:54:07.072Z,100839.88
2022-12-08T03:56:40.361Z,100822.03
2022-12-08T03:59:12.840Z,100766.81
2022-12-08T04:01:44.688Z,100863.63
2022-12-08T04:04:15.832Z,100845.16
2022-12-08T04:06:46.985Z,100839.28
2022-12-08T04:09:18.362Z,100837.66
2022-12-08T04:11:49.738Z,100850.03
2022-12-08T04:14:20.896Z,100761.72
2022-12-08T04:16:51.993Z,100839.19
2022-12-08T04:19:23.179Z,100812.63
2022-12-08T04:21:54.366Z,100836.69
2022-12-08T04:24:25.726Z,100813.78
2022-12-08T04:26:57.081Z,100820.00
2022-12-08T04:29:29.101Z,100799.19
2022-12-08T04:32:00.415Z,100805.19
2022-12-08T04:34:31.695Z,100796.69
2022-12-08T04:37:02.985Z,100802.84
2022-12-08T04:39:34.517Z,100774.59
2022-12-08T04:42:05.925Z,100788.28
2022-12-08T04:44:37.479Z,100778.28
2022-12-08T04:47:08.717Z,100773.69
2022-12-08T04:49:40.004Z,100767.44
2022-12-08T04:52:11.688Z,100742.53
2022-12-08T04:54:42.793Z,100705.59
2022-12-08T04:57:13.933Z,100743.88
2022-12-08T04:59:45.137Z,100757.81
2022-12-08T05:02:16.876Z,100745.69
2022-12-08T05:04:47.464Z,100753.06
2022-12-08T05:07:18.572Z,100735.31
2022-12-08T05:09:49.756Z,100738.19
2022-12-08T05:12:20.830Z,100726.88
2022-12-08T05:14:51.959Z,100724.78
2022-12-08T05:17:24.143Z,100717.34
2022-12-08T05:19:55.629Z,100715.59
2022-12-08T05:22:26.764Z,100713.50
2022-12-08T05:24:57.857Z,100695.97
2022-12-08T05:27:29.135Z,100709.28
2022-12-08T05:30:01.732Z,100711.31
2022-12-08T05:32:33.023Z,100672.09
2022-12-08T05:35:04.569Z,100700.03
2022-12-08T05:37:35.959Z,100677.97
2022-12-08T05:40:07.959Z,100675.19
2022-12-08T05:42:39.341Z,100645.53
2022-12-08T05:45:11.438Z,100665.78
2022-12-08T05:47:42.658Z,100641.31
2022-12-08T05:50:13.925Z,100637.78
2022-12-08T05:52:45.049Z,100653.44
2022-12-08T05:55:16.205Z,100625.44
2022-12-08T05:57:47.304Z,100642.34
2022-12-08T06:00:19.619Z,100649.38
2022-12-08T06:02:50.235Z,100643.88
2022-12-08T06:05:21.381Z,100634.75
2022-12-08T06:07:52.495Z,100632.44
2022-12-08T06:10:23.939Z,100570.06
2022-12-08T06:12:55.506Z,100595.59
2022-12-08T06:15:26.598Z,100606.28
2022-12-08T06:17:57.754Z,100596.94
2022-12-08T06:20:29.066Z,100591.19
2022-12-08T06:23:00.725Z,100573.00
2022-12-08T06:25:32.002Z,100583.66
2022-12-08T06:28:03.213Z,100567.13
2022-12-08T06:30:34.598Z,100584.84
2022-12-08T06:33:05.845Z,100559.34
2022-12-08T06:35:37.227Z,100571.41
2022-12-08T06:38:08.797Z,100549.47
2022-12-08T06:40:40.005Z,100558.94
2022-12-08T06:43:11.509Z,100550.31
2022-12-08T06:45:43.487Z,100536.84
2022-12-08T06:48:14.684Z,100560.84
2022-12-08T06:50:46.602Z,100557.88
2022-12-08T06:53:17.533Z,100560.19
2022-12-08T06:56:00.368Z,100469.72
2022-12-08T06:58:31.943Z,100552.34
2022-12-08T07:01:21.128Z,100552.81
2022-12-08T07:03:52.339Z,100523.34
2022-12-08T07:06:26.237Z,100475.69
2022-12-08T07:08:57.443Z,100555.44
2022-12-08T07:11:28.938Z,100539.97
2022-12-08T07:14:00.518Z,100528.78
2022-12-08T07:16:31.905Z,100508.38
2022-12-08T07:19:03.387Z,100530.66
2022-12-08T07:21:34.836Z,100515.59
2022-12-08T07:24:06.501Z,100518.88
2022-12-08T07:26:37.739Z,100506.38
2022-12-08T07:29:09.452Z,100516.59
2022-12-08T07:31:40.686Z,100526.16
2022-12-08T07:34:14.667Z,100447.06
2022-12-08T07:36:45.889Z,100527.69
2022-12-08T07:39:17.287Z,100519.31
2022-12-08T07:41:48.683Z,100515.06
2022-12-08T07:44:20.153Z,100513.53
2022-12-08T07:46:52.000Z,100511.97
2022-12-08T07:49:23.147Z,100511.44
2022-12-08T07:51:54.175Z,100506.53
2022-12-08T07:54:25.301Z,100502.06
2022-12-08T07:56:59.990Z,100503.00
2022-12-08T07:59:31.462Z,100492.25
2022-12-08T08:02:23.037Z,100491.16
2022-12-08T08:04:54.605Z,100479.81
2022-12-08T08:07:25.982Z,100497.28
2022-12-08T08:09:57.521Z,100495.16
2022-12-08T08:12:32.669Z,100498.22
2022-12-08T08:15:05.214Z,100478.88
2022-12-08T08:17:38.243Z,100486.16
2022-12-08T08:20:10.076Z,100488.28
2022-12-08T08:22:41.270Z,100495.22
2022-12-08T08:25:12.369Z,100494.97
2022-12-08T08:27:43.878Z,100489.78
2022-12-08T08:30:20.255Z,100481.97
2022-12-08T08:32:53.711Z,100466.16
2022-12-08T08:35:24.861Z,100493.38
2022-12-08T08:37:56.335Z,100477.81
2022-12-08T08:40:27.438Z,100486.63
2022-12-08T08:42:58.746Z,100490.75
2022-12-08T08:45:30.277Z,100496.03
2022-12-08T08:48:01.580Z,100491.69
2022-12-08T08:50:37.403Z,100491.31
2022-12-08T08:53:08.971Z,100503.09
2022-12-08T08:55:41.907Z,100420.75
2022-12-08T08:58:16.321Z,100505.41
2022-12-08T09:00:47.768Z,100512.53
2022-12-08T09:03:20.446Z,100516.88
2022-12-08T09:05:52.856Z,100466.44
2022-12-08T09:08:25.279Z,100511.53
2022-12-08T09:10:56.998Z,100513.41
2022-12-08T09:13:28.942Z,100508.28
2022-12-08T09:16:02.011Z,100456.63
2022-12-08T09:18:33.810Z,100472.91
2022-12-08T09:21:14.606Z,100481.75
2022-12-08T09:23:46.027Z,100521.47
2022-12-08T09:26:17.304Z,100487.53
2022-12-08T09:28:49.031Z,100518.59
2022-12-08T09:31:22.422Z,100452.09
2022-12-08T09:33:53.880Z,100533.47
2022-12-08T09:36:25.047Z,100534.44
2022-12-08T09:38:56.289Z,100528.06
2022-12-08T09:42:13.622Z,100544.22
2022-12-08T09:44:54.077Z,100534.50
2022-12-08T09:47:37.853Z,100549.88
2022-12-08T09:50:16.724Z,100507.91
2022-12-08T09:53:18.336Z,100540.56
2022-12-08T09:56:04.397Z,100543.75
2022-12-08T09:59:01.055Z,100567.22
2022-12-08T10:01:43.430Z,100575.03
2022-12-08T10:04:39.397Z,100571.00
2022-12-08T10:07:47.241Z,100586.81
2022-12-08T10:10:21.399Z,100586.34
2022-12-08T10:13:08.817Z,100591.88
2022-12-08T10:15:45.923Z,100568.78
2022-12-08T10:18:19.035Z,100605.03
2022-12-08T10:20:52.843Z,100552.94
2022-12-08T10:23:38.357Z,100618.81
2022-12-08T10:26:17.956Z,100616.91
2022-12-08T10:28:49.908Z,100619.47
2022-12-08T10:31:24.450Z,100625.31
2022-12-08T10:34:12.509Z,100621.47
2022-12-08T10:36:52.596Z,100627.25
2022-12-08T10:39:48.455Z,100602.13
2022-12-08T10:42:24.079Z,100628.19
2022-12-08T10:45:04.448Z,100541.84
2022-12-08T10:47:43.704Z,100595.97
2022-12-08T10:50:26.115Z,100558.94
2022-12-08T10:53:13.799Z,100566.03
2022-12-08T10:55:53.625Z,100624.66
2022-12-08T10:58:32.278Z,100547.41
2022-12-08T11:01:34.842Z,100622.97
2022-12-08T11:04:25.525Z,100633.41
2022-12-08T11:06:56.835Z,100630.91
2022-12-08T11:09:50.897Z,100636.13
2022-12-08T11:12:28.517Z,100645.56
2022-12-08T11:15:04.837Z,100641.66
2022-12-08T11:17:43.393Z,100587.53
2022-12-08T11:20:17.351Z,100650.63
2022-12-08T11:22:57.992Z,100562.28
2022-12-08T11:25:30.949Z,100649.25
2022-12-08T11:28:03.665Z,100653.84
2022-12-08T11:30:43.730Z,100645.13
2022-12-08T11:33:25.892Z,100643.34
2022-12-08T11:36:05.603Z,100601.44
2022-12-08T11:38:42.807Z,100673.59
2022-12-08T11:41:19.616Z,100635.56
2022-12-08T11:44:15.027Z,100678.41
2022-12-08T11:46:51.175Z,100678.09
2022-12-08T11:49:22.793Z,100671.72
2022-12-08T11:52:06.497Z,100682.44
2022-12-08T11:54:47.682Z,100616.31
2022-12-08T11:57:22.406Z,100697.56
2022-12-08T11:59:56.399Z,100701.34
2022-12-08T12:02:33.937Z,100628.59
2022-12-08T12:05:10.283Z,100688.25
2022-12-08T12:07:50.452Z,100697.06
2022-12-08T12:10:33.921Z,100703.81
2022-12-08T12:13:40.357Z,100634.50
2022-12-08T12:16:59.409Z,100717.38
2022-12-08T12:19:35.715Z,100713.69
2022-12-08T12:22:20.134Z,100733.41
2022-12-08T12:24:54.115Z,100730.56
2022-12-08T12:27:34.895Z,100644.28
2022-12-08T12:30:10.914Z,100734.19
2022-12-08T12:32:58.380Z,100609.81
2022-12-08T12:35:36.434Z,100736.41
2022-12-08T12:38:38.337Z,100741.50
2022-12-08T12:41:12.699Z,100736.41
2022-12-08T12:44:11.434Z,100750.59
2022-12-08T12:46:51.399Z,100755.53
2022-12-08T12:49:45.095Z,100760.69
2022-12-08T12:52:20.131Z,100764.16
2022-12-08T12:54:51.816Z,100769.09
2022-12-08T12:57:24.782Z,100769.63
2022-12-08T12:59:56.247Z,100777.59
2022-12-08T13:02:35.713Z,100778.16
2022-12-08T13:05:15.179Z,100761.44
2022-12-08T13:08:26.197Z,100791.34
2022-12-08T13:11:05.222Z,100789.16
2022-12-08T13:13:36.547Z,100787.66
2022-12-08T13:16:18.898Z,100797.69
2022-12-08T13:19:17.939Z,100795.34
2022-12-08T13:21:49.424Z,100804.13
2022-12-08T13:24:27.339Z,100799.91
2022-12-08T13:27:09.113Z,100815.19
2022-12-08T13:29:41.050Z,100812.72
2022-12-08T13:32:11.665Z,100821.50
2022-12-08T13:35:03.670Z,100813.91
2022-12-08T13:37:54.845Z,100820.81
2022-12-08T13:40:33.981Z,100821.78
2022-12-08T13:43:23.281Z,100802.22
2022-12-08T13:50:25.303Z,100766.91
2022-12-08T13:55:49.794Z,100802.28
2022-12-08T13:57:39.134Z,100665.56
2022-12-08T14:00:18.537Z,100742.16
2022-12-08T14:02:53.104Z,100809.16
2022-12-08T14:05:41.055Z,100818.09
2022-12-08T14:08:59.919Z,100814.34
2022-12-08T14:11:37.721Z,100818.25
2022-12-08T14:14:10.742Z,100811.66
2022-12-08T14:16:51.414Z,100746.38
2022-12-08T14:19:24.244Z,100824.41
2022-12-08T14:22:06.587Z,100833.59
2022-12-08T14:24:38.206Z,100827.56
2022-12-08T14:27:14.194Z,100741.97
2022-12-08T14:29:47.110Z,100832.81
2022-12-08T14:32:47.454Z,100829.94
2022-12-08T14:35:33.004Z,100810.50
2022-12-08T14:38:15.804Z,100835.63
2022-12-08T14:40:49.748Z,100831.91
2022-12-08T14:43:22.692Z,100828.81
2022-12-08T14:45:56.366Z,100812.03
2022-12-08T14:48:29.212Z,100834.72
2022-12-08T14:51:03.328Z,100828.25
2022-12-08T14:54:03.371Z,100824.81
2022-12-08T14:56:53.046Z,100672.38
2022-12-08T14:59:35.261Z,100822.72
2022-12-08T15:02:15.339Z,100826.66
2022-12-08T15:04:49.547Z,100829.84
2022-12-08T15:07:50.174Z,100819.94
2022-12-08T15:10:28.123Z,100808.28
2022-12-08T15:13:09.945Z,100769.25
2022-12-08T15:16:07.916Z,100800.63
2022-12-08T15:18:46.119Z,100810.16
2022-12-08T15:21:23.119Z,100795.00
2022-12-08T15:23:54.962Z,100776.75
2022-12-08T15:26:43.883Z,100789.22
2022-12-08T15:29:30.078Z,100751.47
2022-12-08T15:32:04.492Z,100785.25
2022-12-08T15:34:39.379Z,100808.66
2022-12-08T15:37:31.089Z,100662.69
2022-12-08T15:40:02.739Z,100809.72
2022-12-08T15:42:38.630Z,100800.38
2022-12-08T15:45:17.500Z,100741.88
2022-12-08T15:47:51.643Z,100808.63
2022-12-08T15:50:25.046Z,100736.28
2022-12-08T15:52:59.293Z,100791.59
2022-12-08T15:55:33.090Z,100800.91
2022-12-08T15:58:52.982Z,100791.53
2022-12-08T16:01:19.434Z,100788.56
2022-12-08T16:09:39.950Z,100792.06
2022-12-08T16:13:40.284Z,100721.81
2022-12-08T16:16:01.440Z,100780.72
2022-12-08T16:18:29.385Z,100711.84
2022-12-08T16:21:17.903Z,100785.69
2022-12-08T16:23:58.812Z,100778.63
2022-12-08T16:27:28.472Z,100773.66
2022-12-08T16:29:26.087Z,100748.25
2022-12-08T16:31:57.302Z,100780.97
2022-12-08T16:34:28.428Z,100786.25
2022-12-08T16:37:02.332Z,100786.66
2022-12-08T16:39:33.664Z,100797.91
2022-12-08T16:42:22.942Z,100795.00
2022-12-08T16:44:54.485Z,100796.25
2022-12-08T16:47:25.661Z,100798.78
2022-12-08T16:49:56.852Z,100785.91
2022-12-08T16:52:28.167Z,100774.50
2022-12-08T16:54:59.586Z,100787.75
2022-12-08T16:57:31.019Z,100777.19
2022-12-08T17:00:02.475Z,100789.44
2022-12-08T17:02:33.862Z,100778.44
2022-12-08T17:05:06.465Z,100780.53
2022-12-08T17:07:38.450Z,100766.88
2022-12-08T17:10:11.673Z,100780.97
2022-12-08T17:12:43.449Z,100769.31
2022-12-08T17:15:20.552Z,100721.19
2022-12-08T17:17:53.211Z,100760.19
2022-12-08T17:20:25.575Z,100766.78
2022-12-08T17:23:00.201Z,100763.78
2022-12-08T17:25:31.600Z,100746.34
2022-12-08T17:28:02.751Z,100765.53
2022-12-08T17:30:33.821Z,100765.03
2022-12-08T17:33:05.019Z,100756.13
2022-12-08T17:35:36.346Z,100758.63
2022-12-08T17:38:07.447Z,100756.94
2022-12-08T17:40:38.947Z,100754.47
2022-12-08T17:43:10.057Z,100745.94
2022-12-08T17:45:50.664Z,100749.69
2022-12-08T17:48:21.851Z,100737.88
2022-12-08T17:50:53.101Z,100749.50
2022-12-08T17:53:24.902Z,100751.19
2022-12-08T17:56:00.379Z,100707.81
2022-12-08T17:58:31.474Z,100737.88
2022-12-08T18:01:02.819Z,100728.78
2022-12-08T18:03:34.472Z,100746.00
2022-12-08T18:06:11.313Z,100655.38
2022-12-08T18:08:42.704Z,100741.03
2022-12-08T18:11:17.092Z,100715.06
2022-12-08T18:13:50.565Z,100655.13
2022-12-08T18:16:24.791Z,100723.78
2022-12-08T18:18:56.416Z,100697.66
2022-12-08T18:21:27.829Z,100713.38
2022-12-08T18:23:58.991Z,100700.75
2022-12-08T18:26:32.063Z,100705.50
2022-12-08T18:29:03.434Z,100649.75
2022-12-08T18:31:34.545Z,100702.19
2022-12-08T18:34:06.114Z,100693.06
2022-12-08T18:36:37.326Z,100693.88
2022-12-08T18:39:10.935Z,100676.47
2022-12-08T18:41:42.213Z,100669.41
2022-12-08T18:44:13.348Z,100640.00
2022-12-08T18:46:44.497Z,100679.34
2022-12-08T18:49:20.670Z,100595.59
2022-12-08T18:51:52.383Z,100674.34
2022-12-08T18:54:37.232Z,100664.41
2022-12-08T18:57:16.532Z,100608.66
2022-12-08T18:59:48.147Z,100663.19
2022-12-08T19:02:19.913Z,100654.06
2022-12-08T19:04:51.137Z,100665.66
2022-12-08T19:07:22.258Z,100643.69
2022-12-08T19:09:53.496Z,100664.41
2022-12-08T19:12:25.169Z,100668.16
2022-12-08T19:14:56.644Z,100666.53
2022-12-08T19:17:28.210Z,100656.53
2022-12-08T19:19:59.501Z,100669.03
2022-12-08T19:22:30.874Z,100622.56
2022-12-08T19:25:02.144Z,100658.22
2022-12-08T19:27:35.614Z,100642.00
2022-12-08T19:30:08.306Z,100623.16
2022-12-08T19:32:39.697Z,100651.16
2022-12-08T19:35:11.520Z,100638.69
2022-12-08T19:37:42.674Z,100635.38
2022-12-08T19:40:34.408Z,100619.25
2022-12-08T19:43:24.116Z,100578.19
2022-12-08T19:45:55.373Z,100646.19
2022-12-08T19:48:26.766Z,100579.00
2022-12-08T19:50:58.442Z,100616.75
2022-12-08T19:53:30.291Z,100633.34
2022-12-08T19:56:01.495Z,100634.59
2022-12-08T19:58:33.278Z,100615.91
2022-12-08T20:01:04.407Z,100630.00
2022-12-08T20:03:35.620Z,100621.91
2022-12-08T20:06:06.892Z,100621.50
2022-12-08T20:08:38.125Z,100588.06
2022-12-08T20:11:09.325Z,100618.81
2022-12-08T20:13:43.008Z,100612.34
2022-12-08T20:16:15.884Z,100529.88
2022-12-08T20:18:49.101Z,100598.03
2022-12-08T20:21:20.883Z,100618.38
2022-12-08T20:23:52.132Z,100600.75
2022-12-08T20:26:24.789Z,100615.06
2022-12-08T20:28:56.486Z,100603.03
2022-12-08T20:31:30.721Z,100551.84
2022-12-08T20:34:02.369Z,100620.69
2022-12-08T20:36:33.520Z,100602.44
2022-12-08T20:39:04.683Z,100614.66
2022-12-08T20:41:39.093Z,100630.88
2022-12-08T20:44:11.162Z,100627.94
2022-12-08T20:46:47.793Z,100624.66
2022-12-08T20:49:20.659Z,100603.44
2022-12-08T20:51:52.380Z,100626.78
2022-12-08T20:54:23.411Z,100626.69
2022-12-08T20:56:54.737Z,100625.06
2022-12-08T20:59:27.778Z,100631.72
2022-12-08T21:01:59.462Z,100617.59
2022-12-08T21:04:31.303Z,100605.56
2022-12-08T21:07:03.082Z,100611.19
2022-12-08T21:09:34.554Z,100634.84
2022-12-08T21:12:06.150Z,100637.16
2022-12-08T21:14:38.991Z,100618.44
2022-12-08T21:17:10.249Z,100641.69
2022-12-08T21:19:42.454Z,100640.47
2022-12-08T21:22:15.201Z,100637.97
2022-12-08T21:24:46.644Z,100648.34
2022-12-08T21:27:18.453Z,100640.03
2022-12-08T21:29:49.753Z,100575.38
2022-12-08T21:32:25.654Z,100647.56
2022-12-08T21:34:59.897Z,100645.88
2022-12-08T21:37:31.374Z,100594.91
2022-12-08T21:40:02.563Z,100649.63
2022-12-08T21:42:46.204Z,100654.63
2022-12-08T21:45:21.302Z,100644.25
2022-12-08T21:47:52.981Z,100664.56
2022-12-08T21:50:25.679Z,100597.59
2022-12-08T21:52:58.046Z,100657.09
2022-12-08T21:55:30.245Z,100593.41
2022-12-08T21:58:03.464Z,100652.56
2022-12-08T22:00:35.017Z,100651.50
2022-12-08T22:03:07.806Z,100647.78
2022-12-08T22:05:39.491Z,100628.72
2022-12-08T22:08:10.856Z,100644.69
2022-12-08T22:10:42.293Z,100654.19
2022-12-08T22:13:13.569Z,100659.16
2022-12-08T22:15:44.970Z,100667.50
2022-12-08T22:18:16.225Z,100672.91
2022-12-08T22:20:47.660Z,100672.06
2022-12-08T22:23:19.113Z,100672.47
2022-12-08T22:26:03.658Z,100623.94
2022-12-08T22:28:38.150Z,100587.03
2022-12-08T22:31:17.311Z,100675.59
2022-12-08T22:33:49.571Z,100680.38
2022-12-08T22:36:21.960Z,100677.03
2022-12-08T22:38:54.163Z,100686.59
2022-12-08T22:41:25.849Z,100691.19
2022-12-08T22:43:57.013Z,100694.09
2022-12-08T22:46:29.344Z,100689.56
2022-12-08T22:49:00.686Z,100694.53
2022-12-08T22:51:32.349Z,100702.63
2022-12-08T22:54:03.572Z,100706.56
2022-12-08T22:56:34.691Z,100678.28
2022-12-08T22:59:06.333Z,100684.16
2022-12-08T23:01:37.875Z,100706.56
2022-12-08T23:04:17.199Z,100705.50
2022-12-08T23:06:48.913Z,100700.28
2022-12-08T23:09:20.039Z,100713.59
2022-12-08T23:11:51.418Z,100698.03
2022-12-08T23:14:22.801Z,100720.41
2022-12-08T23:16:54.189Z,100729.56
2022-12-08T23:19:25.652Z,100718.56
2022-12-08T23:21:56.986Z,100735.16
2022-12-08T23:24:28.700Z,100753.84
2022-12-08T23:27:00.288Z,100730.38
2022-12-08T23:29:32.100Z,100683.25
2022-12-08T23:32:03.347Z,100737.22
2022-12-08T23:34:34.918Z,100768.78
2022-12-08T23:37:06.311Z,100763.38
2022-12-08T23:39:37.504Z,100747.59
2022-12-08T23:42:08.821Z,100769.63
2022-12-08T23:44:40.692Z,100761.94
2022-12-08T23:47:11.990Z,100772.53
2022-12-08T23:49:43.374Z,100772.94
2022-12-08T23:52:15.657Z,100781.63
2022-12-08T23:54:47.095Z,100777.75
2022-12-08T23:57:18.307Z,100775.66
2022-12-08T23:59:50.086Z,100777.97
